Time;durP1;ratioP1;P1;durP2;ratioP2;P2;SDS_P1;SDS_P2;PMS_P1;PMS_P2;Temp;Humidity;BMP_temperature;BMP_pressure;BME280_temperature;BME280_humidity;BME280_pressure;Samples;Min_cycle;Max_cycle;Signal;HPM_P1;HPM_P2
2022/01/06 00:00:33;;;;;;;5.12;2.80;;;11.70;63.90;;;;;;1891363;75;21027;-48
2022/01/06 00:03:02;;;;;;;5.45;2.55;;;11.80;64.60;;;;;;1891364;76;21028;-44
2022/01/06 00:05:32;;;;;;;2.47;2.27;;;11.80;64.40;;;;;;1891384;76;21032;-44
2022/01/06 00:08:02;;;;;;;5.10;3.35;;;11.80;64.30;;;;;;1891411;76;21008;-44
2022/01/06 00:10:32;;;;;;;7.00;2.62;;;11.80;64.60;;;;;;1891460;76;21118;-44
2022/01/06 00:13:09;;;;;;;3.87;2.52;;;11.80;64.00;;;;;;1891371;76;21149;-44
2022/01/06 00:16:01;;;;;;;3.67;2.50;;;11.80;64.40;;;;;;1889986;75;21486;-45
2022/01/06 00:18:23;;;;;;;3.85;2.35;;;11.80;64.40;;;;;;1889213;75;21105;-44
2022/01/06 00:23:38;;;;;;;3.98;2.60;;;11.70;64.10;;;;;;1891571;76;21052;-45
2022/01/06 00:26:04;;;;;;;4.15;2.67;;;11.70;63.70;;;;;;1891166;75;21039;-45
2022/01/06 00:28:34;;;;;;;4.87;2.98;;;11.70;63.80;;;;;;1891526;76;21036;-44
2022/01/06 00:31:04;;;;;;;6.35;3.37;;;11.70;63.60;;;;;;1891504;76;21098;-44
2022/01/06 00:33:35;;;;;;;3.45;2.65;;;11.70;63.40;;;;;;1891648;75;21032;-47
2022/01/06 00:36:04;;;;;;;5.15;2.80;;;11.70;62.90;;;;;;1891520;76;21031;-45
2022/01/06 00:38:34;;;;;;;5.60;2.47;;;11.70;63.20;;;;;;1891549;76;21039;-44
2022/01/06 00:41:03;;;;;;;4.30;3.00;;;11.70;63.40;;;;;;1891551;76;21084;-44
2022/01/06 00:43:33;;;;;;;4.37;2.45;;;11.70;63.60;;;;;;1891540;76;21032;-45
2022/01/06 00:46:02;;;;;;;5.22;2.72;;;11.70;63.10;;;;;;1891579;75;21070;-44
2022/01/06 00:48:31;;;;;;;4.67;2.65;;;11.70;63.40;;;;;;1891617;76;21012;-46
2022/01/06 00:51:00;;;;;;;2.87;2.17;;;11.70;63.00;;;;;;1891542;76;21102;-44
2022/01/06 00:53:30;;;;;;;5.58;2.62;;;11.70;63.00;;;;;;1891653;75;21103;-45
2022/01/06 00:55:59;;;;;;;3.50;2.40;;;11.70;62.70;;;;;;1891610;76;21032;-47
2022/01/06 00:58:29;;;;;;;5.47;2.90;;;11.70;63.30;;;;;;1891487;76;21044;-44
2022/01/06 01:00:58;;;;;;;5.50;3.25;;;11.70;63.30;;;;;;1891590;76;21454;-45
2022/01/06 01:03:28;;;;;;;6.62;2.70;;;11.70;63.20;;;;;;1891501;76;21028;-47
2022/01/06 01:05:58;;;;;;;5.78;3.08;;;11.70;63.10;;;;;;1891490;76;21032;-44
2022/01/06 01:08:27;;;;;;;4.72;2.75;;;11.70;63.20;;;;;;1891480;76;21004;-44
2022/01/06 01:10:57;;;;;;;3.85;2.83;;;11.70;63.40;;;;;;1891566;75;21129;-44
2022/01/06 01:13:31;;;;;;;6.45;2.72;;;11.70;63.30;;;;;;1891623;76;21122;-44
2022/01/06 01:16:10;;;;;;;4.40;2.40;;;11.70;63.00;;;;;;1891508;76;21036;-43
2022/01/06 01:18:32;;;;;;;4.80;2.85;;;11.70;62.90;;;;;;1890594;75;21020;-44
2022/01/06 01:21:02;;;;;;;4.28;2.58;;;11.80;62.70;;;;;;1891490;76;21008;-45
2022/01/06 01:23:31;;;;;;;2.55;2.33;;;11.80;62.90;;;;;;1891711;74;21039;-46
2022/01/06 01:26:00;;;;;;;2.55;2.35;;;11.80;61.90;;;;;;1891445;75;21094;-46
2022/01/06 01:28:33;;;;;;;4.05;2.70;;;11.80;62.10;;;;;;1891528;76;21034;-48
2022/01/06 01:33:32;;;;;;;4.53;2.22;;;11.90;62.40;;;;;;1891612;76;21036;-45
2022/01/06 01:36:01;;;;;;;2.20;1.87;;;11.90;61.70;;;;;;1891484;76;21020;-46
2022/01/06 01:38:31;;;;;;;5.10;2.75;;;11.90;62.10;;;;;;1891511;76;21031;-47
2022/01/06 01:41:00;;;;;;;3.12;2.58;;;11.90;61.90;;;;;;1891584;74;21031;-43
2022/01/06 01:43:30;;;;;;;8.30;3.08;;;11.90;62.10;;;;;;1891599;76;20999;-45
2022/01/06 01:46:08;;;;;;;4.08;2.70;;;11.90;62.00;;;;;;1891470;76;21126;-45
2022/01/06 01:48:34;;;;;;;2.85;2.37;;;11.80;62.20;;;;;;1890422;75;21044;-45
2022/01/06 01:51:01;;;;;;;7.37;2.72;;;11.90;62.20;;;;;;1891201;75;21130;-46
2022/01/06 01:53:31;;;;;;;5.80;3.02;;;11.90;61.70;;;;;;1891578;74;21044;-44
2022/01/06 01:56:01;;;;;;;4.67;2.60;;;11.90;61.60;;;;;;1891472;76;21093;-44
2022/01/06 01:58:30;;;;;;;3.50;2.52;;;11.90;61.60;;;;;;1891471;76;21040;-45
2022/01/06 02:01:00;;;;;;;3.87;2.50;;;11.90;61.90;;;;;;1872720;76;21006;-46
2022/01/06 02:03:31;;;;;;;3.05;1.82;;;11.90;62.10;;;;;;1872495;75;21052;-44
2022/01/06 02:06:00;;;;;;;3.83;2.85;;;11.90;61.20;;;;;;1872819;76;21115;-46
2022/01/06 02:08:30;;;;;;;4.53;2.62;;;11.90;61.70;;;;;;1872762;76;21009;-44
2022/01/06 02:11:00;;;;;;;6.42;2.83;;;12.00;62.10;;;;;;1872808;75;21132;-45
2022/01/06 02:13:30;;;;;;;5.25;2.75;;;11.90;62.20;;;;;;1872777;76;21038;-45
2022/01/06 02:16:01;;;;;;;9.45;2.92;;;12.00;62.00;;;;;;1872861;77;21041;-47
2022/01/06 02:18:31;;;;;;;4.12;2.40;;;12.00;61.80;;;;;;1872950;77;21057;-45
2022/01/06 02:21:00;;;;;;;3.98;2.72;;;11.90;61.70;;;;;;1872732;75;21101;-44
2022/01/06 02:23:29;;;;;;;6.03;2.95;;;11.90;61.90;;;;;;1872880;76;21029;-44
2022/01/06 02:25:59;;;;;;;4.85;2.83;;;11.90;62.30;;;;;;1872804;75;21033;-46
2022/01/06 02:28:28;;;;;;;4.42;2.70;;;11.90;62.40;;;;;;1872953;77;21017;-47
2022/01/06 02:30:58;;;;;;;5.90;2.37;;;11.90;62.00;;;;;;1872793;75;21033;-45
2022/01/06 02:33:28;;;;;;;5.12;3.05;;;11.80;62.20;;;;;;1872832;75;21006;-45
2022/01/06 02:35:57;;;;;;;3.17;2.52;;;11.90;61.80;;;;;;1872773;75;21120;-45
2022/01/06 02:38:27;;;;;;;3.08;2.60;;;11.90;61.70;;;;;;1872860;75;21127;-44
2022/01/06 02:40:56;;;;;;;5.60;2.72;;;11.90;61.70;;;;;;1872906;75;21077;-47
2022/01/06 02:43:25;;;;;;;3.65;3.00;;;11.90;61.20;;;;;;1872957;76;21045;-47
2022/01/06 02:45:55;;;;;;;7.25;2.60;;;11.90;61.80;;;;;;1872889;75;21120;-45
2022/01/06 02:48:24;;;;;;;6.10;3.05;;;11.90;61.20;;;;;;1872843;77;21029;-45
2022/01/06 02:50:54;;;;;;;3.62;2.20;;;11.90;61.50;;;;;;1872767;75;21030;-45
2022/01/06 02:53:23;;;;;;;14.45;3.45;;;11.90;61.10;;;;;;1872908;75;21037;-45
2022/01/06 02:55:53;;;;;;;3.27;2.37;;;11.90;60.90;;;;;;1873004;77;21452;-44
2022/01/06 02:58:22;;;;;;;2.52;2.30;;;11.90;60.70;;;;;;1873026;77;21010;-46
2022/01/06 03:00:52;;;;;;;3.37;2.45;;;11.90;61.10;;;;;;1872917;75;21065;-47
2022/01/06 03:03:21;;;;;;;6.33;2.17;;;11.90;61.30;;;;;;1872931;77;21104;-45
2022/01/06 03:05:50;;;;;;;6.85;2.17;;;11.90;61.20;;;;;;1872884;75;20997;-45
2022/01/06 03:08:23;;;;;;;6.12;2.75;;;11.90;60.30;;;;;;1873044;76;21453;-45
2022/01/06 03:10:50;;;;;;;6.45;2.55;;;11.90;60.60;;;;;;1872862;75;21529;-44
2022/01/06 03:13:20;;;;;;;3.62;2.10;;;12.00;60.50;;;;;;1873020;75;21005;-46
2022/01/06 03:15:49;;;;;;;3.98;2.40;;;12.00;59.60;;;;;;1872907;76;21034;-45
2022/01/06 03:18:19;;;;;;;4.55;2.10;;;12.00;60.20;;;;;;1872878;75;21087;-45
2022/01/06 03:20:48;;;;;;;4.53;2.67;;;12.00;59.90;;;;;;1872878;75;21001;-45
2022/01/06 03:23:18;;;;;;;5.67;2.50;;;12.00;59.40;;;;;;1872957;75;21115;-47
2022/01/06 03:25:47;;;;;;;2.42;1.95;;;12.10;60.00;;;;;;1872990;76;21049;-44
2022/01/06 03:28:16;;;;;;;3.22;2.37;;;12.10;59.50;;;;;;1873038;75;21084;-45
2022/01/06 03:30:45;;;;;;;3.67;2.02;;;12.10;59.60;;;;;;1872806;75;21034;-44
2022/01/06 03:33:15;;;;;;;3.83;2.90;;;12.10;59.50;;;;;;1872981;75;21121;-46
2022/01/06 03:35:45;;;;;;;10.08;2.85;;;12.10;59.90;;;;;;1872980;76;21041;-48
2022/01/06 03:38:14;;;;;;;4.62;2.40;;;12.10;59.10;;;;;;1872881;75;21033;-45
2022/01/06 03:40:43;;;;;;;7.22;2.65;;;12.20;58.90;;;;;;1873008;76;21107;-48
2022/01/06 03:43:12;;;;;;;5.47;2.92;;;12.20;58.90;;;;;;1872935;75;21525;-46
2022/01/06 03:45:42;;;;;;;5.60;2.70;;;12.30;58.80;;;;;;1872984;77;21037;-45
2022/01/06 03:48:11;;;;;;;3.83;2.45;;;12.20;59.00;;;;;;1872992;75;21085;-44
2022/01/06 03:50:41;;;;;;;4.83;2.87;;;12.30;59.30;;;;;;1873036;75;21033;-46
2022/01/06 03:53:11;;;;;;;4.33;2.25;;;12.30;59.00;;;;;;1873105;75;21045;-44
2022/01/06 03:55:40;;;;;;;4.25;2.40;;;12.30;58.30;;;;;;1873109;77;21025;-44
2022/01/06 03:58:11;;;;;;;4.58;2.70;;;12.30;59.20;;;;;;1873040;76;21190;-45
2022/01/06 04:00:40;;;;;;;4.55;2.77;;;12.20;59.00;;;;;;1873014;75;21065;-48
2022/01/06 04:03:09;;;;;;;6.72;3.20;;;12.30;59.20;;;;;;1872965;75;21072;-47
2022/01/06 04:05:39;;;;;;;3.80;2.62;;;12.20;59.10;;;;;;1873060;75;21009;-44
2022/01/06 04:08:08;;;;;;;2.47;2.15;;;12.20;58.80;;;;;;1873068;76;21034;-45
2022/01/06 04:10:38;;;;;;;4.10;2.67;;;12.20;58.20;;;;;;1872857;75;21042;-45
2022/01/06 04:13:07;;;;;;;5.17;2.55;;;12.20;58.70;;;;;;1873028;76;21097;-44
2022/01/06 04:15:37;;;;;;;19.70;4.80;;;12.20;59.00;;;;;;1872867;75;21131;-45
2022/01/06 04:18:06;;;;;;;8.05;2.52;;;12.30;58.50;;;;;;1872882;76;21096;-47
2022/01/06 04:20:36;;;;;;;5.08;3.05;;;12.30;58.60;;;;;;1872954;76;21045;-46
2022/01/06 04:23:05;;;;;;;4.85;3.20;;;12.30;58.60;;;;;;1872767;75;21101;-48
2022/01/06 04:25:34;;;;;;;4.22;2.60;;;12.20;58.70;;;;;;1872790;75;21091;-44
2022/01/06 04:28:04;;;;;;;6.50;3.83;;;12.20;58.80;;;;;;1872921;76;21057;-45
2022/01/06 04:30:34;;;;;;;7.10;3.20;;;12.30;58.00;;;;;;1872839;75;21045;-45
2022/01/06 04:33:03;;;;;;;3.27;2.55;;;12.30;58.30;;;;;;1872858;77;21033;-44
2022/01/06 04:35:32;;;;;;;4.97;3.77;;;12.30;58.30;;;;;;1872800;75;21034;-45
2022/01/06 04:38:01;;;;;;;5.05;3.55;;;12.30;57.90;;;;;;1872981;76;21037;-45
2022/01/06 04:40:31;;;;;;;5.85;2.10;;;12.30;57.10;;;;;;1873055;75;21095;-46
2022/01/06 04:43:00;;;;;;;6.47;2.92;;;12.30;57.00;;;;;;1872889;75;21076;-47
2022/01/06 04:45:30;;;;;;;3.05;2.50;;;12.30;57.30;;;;;;1872910;76;21174;-44
2022/01/06 04:47:59;;;;;;;3.22;2.27;;;12.30;57.00;;;;;;1872830;75;21030;-44
2022/01/06 04:50:29;;;;;;;5.25;2.50;;;12.30;56.70;;;;;;1872970;75;21022;-44
2022/01/06 04:52:59;;;;;;;4.00;2.00;;;12.40;57.30;;;;;;1872836;76;21029;-46
2022/01/06 04:55:28;;;;;;;4.50;2.55;;;12.40;56.60;;;;;;1872880;76;21037;-46
2022/01/06 04:57:58;;;;;;;5.33;2.80;;;12.40;57.50;;;;;;1872876;76;21068;-45
2022/01/06 05:00:27;;;;;;;4.58;2.45;;;12.30;56.50;;;;;;1872606;75;21154;-48
2022/01/06 05:02:57;;;;;;;6.17;2.95;;;12.40;57.10;;;;;;1872759;75;21064;-45
2022/01/06 05:05:26;;;;;;;3.83;2.42;;;12.30;56.50;;;;;;1872936;76;21033;-48
2022/01/06 05:07:56;;;;;;;5.50;2.75;;;12.40;56.80;;;;;;1873081;76;21103;-46
2022/01/06 05:10:25;;;;;;;6.35;2.17;;;12.40;56.80;;;;;;1872827;76;21084;-44
2022/01/06 05:12:54;;;;;;;5.45;2.70;;;12.40;56.20;;;;;;1872875;76;21024;-44
2022/01/06 05:15:24;;;;;;;4.47;1.98;;;12.40;56.20;;;;;;1872818;77;21029;-45
2022/01/06 05:17:53;;;;;;;5.53;2.92;;;12.50;56.30;;;;;;1872944;75;21091;-44
2022/01/06 05:20:25;;;;;;;4.70;2.17;;;12.50;56.00;;;;;;1872893;76;21103;-45
2022/01/06 05:22:58;;;;;;;3.17;2.50;;;12.50;55.60;;;;;;1872703;75;21092;-46
2022/01/06 05:25:27;;;;;;;9.13;2.30;;;12.50;56.20;;;;;;1872294;76;21026;-45
2022/01/06 05:27:56;;;;;;;2.52;1.82;;;12.50;56.10;;;;;;1872889;76;21072;-45
2022/01/06 05:30:26;;;;;;;4.00;1.98;;;12.50;55.60;;;;;;1872985;75;21029;-45
2022/01/06 05:32:55;;;;;;;4.75;2.45;;;12.60;56.10;;;;;;1872893;76;21065;-48
2022/01/06 05:35:24;;;;;;;4.62;2.25;;;12.60;56.00;;;;;;1872905;77;21009;-47
2022/01/06 05:37:54;;;;;;;7.17;2.85;;;12.60;55.60;;;;;;1872819;75;21037;-46
2022/01/06 05:40:23;;;;;;;5.35;3.00;;;12.60;55.70;;;;;;1872905;76;21009;-45
2022/01/06 05:42:52;;;;;;;4.90;2.22;;;12.70;55.80;;;;;;1872899;75;21037;-46
2022/01/06 05:45:22;;;;;;;6.58;2.42;;;12.70;55.80;;;;;;1873031;76;21033;-45
2022/01/06 05:47:52;;;;;;;7.50;2.55;;;12.70;55.50;;;;;;1872916;76;21050;-45
2022/01/06 05:50:21;;;;;;;5.17;2.22;;;12.70;55.10;;;;;;1872868;75;21033;-48
2022/01/06 05:52:54;;;;;;;3.70;1.77;;;12.70;55.30;;;;;;1873009;77;21104;-46
2022/01/06 05:55:24;;;;;;;3.55;2.17;;;12.70;54.40;;;;;;1872749;75;21538;-44
2022/01/06 05:57:54;;;;;;;6.05;2.47;;;12.70;55.00;;;;;;1873020;75;21053;-46
2022/01/06 06:00:23;;;;;;;6.60;2.20;;;12.80;55.60;;;;;;1873157;75;21013;-45
2022/01/06 06:02:53;;;;;;;5.35;2.45;;;12.80;55.30;;;;;;1872948;75;21116;-45
2022/01/06 06:05:23;;;;;;;4.22;2.85;;;12.80;55.30;;;;;;1873007;77;21057;-45
2022/01/06 06:07:52;;;;;;;4.22;2.27;;;12.80;55.20;;;;;;1872921;77;21037;-45
2022/01/06 06:10:22;;;;;;;5.45;2.50;;;12.80;55.30;;;;;;1873021;75;21107;-45
2022/01/06 06:12:52;;;;;;;5.67;2.67;;;12.80;55.60;;;;;;1872987;76;21021;-45
2022/01/06 06:15:22;;;;;;;3.22;2.20;;;12.80;55.70;;;;;;1872890;76;21013;-45
2022/01/06 06:17:51;;;;;;;3.70;2.05;;;12.80;56.10;;;;;;1872967;75;21034;-45
2022/01/06 06:20:21;;;;;;;3.22;1.85;;;12.80;56.00;;;;;;1873009;77;21034;-45
2022/01/06 06:22:50;;;;;;;3.45;1.90;;;12.80;55.70;;;;;;1872882;75;21009;-45
2022/01/06 06:25:19;;;;;;;3.17;1.98;;;12.80;56.20;;;;;;1872987;75;21135;-45
2022/01/06 06:27:49;;;;;;;4.67;2.85;;;12.80;56.80;;;;;;1873018;76;21073;-45
2022/01/06 06:30:18;;;;;;;5.78;2.10;;;12.80;57.90;;;;;;1872932;75;21035;-46
2022/01/06 06:32:48;;;;;;;3.62;2.67;;;12.80;59.50;;;;;;1873076;75;21061;-45
2022/01/06 06:35:17;;;;;;;6.33;3.00;;;12.80;60.10;;;;;;1872782;75;21034;-46
2022/01/06 06:37:46;;;;;;;5.15;3.05;;;12.80;60.40;;;;;;1872952;76;21053;-44
2022/01/06 06:40:19;;;;;;;6.83;3.62;;;12.80;60.50;;;;;;1872790;77;21054;-48
2022/01/06 06:42:47;;;;;;;3.37;2.15;;;12.70;60.80;;;;;;1872823;77;21080;-45
2022/01/06 06:45:16;;;;;;;7.12;3.20;;;12.70;61.30;;;;;;1872779;77;21026;-44
2022/01/06 06:47:46;;;;;;;4.42;3.25;;;12.70;61.70;;;;;;1872927;75;21030;-45
2022/01/06 06:50:15;;;;;;;4.08;3.05;;;12.70;62.40;;;;;;1872775;76;21026;-45
2022/01/06 06:52:45;;;;;;;3.60;2.45;;;12.70;62.40;;;;;;1872762;77;21005;-45
2022/01/06 06:55:15;;;;;;;4.22;2.15;;;12.60;62.90;;;;;;1872742;76;21037;-45
2022/01/06 06:57:44;;;;;;;4.33;2.75;;;12.60;63.00;;;;;;1872795;75;21037;-45
2022/01/06 07:00:14;;;;;;;6.83;3.10;;;12.60;63.30;;;;;;1872886;76;21017;-45
2022/01/06 07:02:44;;;;;;;7.33;2.70;;;12.60;63.40;;;;;;1872767;75;21038;-44
2022/01/06 07:05:15;;;;;;;5.67;2.85;;;12.60;63.40;;;;;;1872772;77;21049;-45
2022/01/06 07:07:44;;;;;;;5.08;2.75;;;12.60;63.70;;;;;;1872711;75;21053;-45
2022/01/06 07:10:14;;;;;;;7.28;3.08;;;12.60;63.70;;;;;;1872748;77;21053;-46
2022/01/06 07:12:45;;;;;;;6.53;2.70;;;12.60;63.70;;;;;;1872824;76;21045;-44
2022/01/06 07:15:15;;;;;;;4.83;2.42;;;12.60;63.70;;;;;;1872799;77;21026;-44
2022/01/06 07:17:45;;;;;;;6.53;3.10;;;12.60;63.70;;;;;;1872909;76;21037;-45
2022/01/06 07:20:14;;;;;;;5.85;3.25;;;12.70;63.60;;;;;;1872835;75;21127;-45
2022/01/06 07:22:43;;;;;;;5.45;3.05;;;12.70;63.60;;;;;;1872666;76;21037;-45
2022/01/06 07:25:12;;;;;;;6.80;4.10;;;12.70;63.50;;;;;;1872639;77;21013;-47
2022/01/06 07:27:42;;;;;;;4.83;2.45;;;12.70;63.40;;;;;;1872827;75;21104;-44
2022/01/06 07:30:11;;;;;;;6.33;3.12;;;12.80;63.30;;;;;;1872782;75;21036;-47
2022/01/06 07:32:49;;;;;;;5.47;2.92;;;12.80;63.10;;;;;;1872698;76;21049;-44
2022/01/06 07:35:21;;;;;;;8.48;2.98;;;12.80;63.10;;;;;;1872792;76;21029;-45
2022/01/06 07:37:51;;;;;;;6.78;2.65;;;12.90;63.00;;;;;;1872861;75;21120;-46
2022/01/06 07:40:20;;;;;;;13.70;7.62;;;12.90;62.90;;;;;;1872947;77;21041;-49
2022/01/06 07:42:50;;;;;;;5.12;2.25;;;12.90;62.90;;;;;;1872690;75;21033;-45
2022/01/06 07:45:19;;;;;;;5.42;2.95;;;13.00;62.30;;;;;;1872779;76;21010;-45
2022/01/06 07:47:57;;;;;;;4.72;2.55;;;13.00;61.80;;;;;;1872885;76;21139;-45
2022/01/06 07:50:29;;;;;;;3.55;2.55;;;13.00;61.90;;;;;;1872989;75;21128;-47
2022/01/06 07:52:58;;;;;;;4.92;2.52;;;13.10;61.60;;;;;;1872924;76;21469;-45
2022/01/06 07:55:28;;;;;;;6.00;2.55;;;13.10;61.50;;;;;;1872760;75;21031;-46
2022/01/06 07:57:58;;;;;;;5.47;3.05;;;13.20;61.00;;;;;;1872968;75;21025;-45
2022/01/06 08:00:28;;;;;;;7.47;2.70;;;13.20;61.50;;;;;;1872888;77;21091;-48
2022/01/06 08:02:57;;;;;;;4.22;2.37;;;13.20;61.10;;;;;;1872883;75;21077;-45
2022/01/06 08:05:27;;;;;;;6.33;3.20;;;13.30;60.90;;;;;;1872864;77;21014;-44
2022/01/06 08:07:57;;;;;;;7.12;2.60;;;13.30;61.00;;;;;;1872758;75;21037;-45
2022/01/06 08:10:26;;;;;;;3.17;2.47;;;13.30;60.60;;;;;;1872874;76;21520;-45
2022/01/06 08:12:56;;;;;;;9.83;3.42;;;13.30;60.40;;;;;;1872722;77;21037;-46
2022/01/06 08:15:25;;;;;;;6.70;2.92;;;13.30;60.80;;;;;;1872811;75;21041;-44
2022/01/06 08:17:55;;;;;;;5.35;3.25;;;13.30;60.80;;;;;;1872733;75;21030;-44
2022/01/06 08:20:24;;;;;;;7.20;3.05;;;13.30;60.70;;;;;;1872766;75;21030;-45
2022/01/06 08:22:53;;;;;;;6.25;2.95;;;13.30;60.80;;;;;;1872771;77;21029;-45
2022/01/06 08:25:22;;;;;;;7.42;3.58;;;13.30;61.10;;;;;;1872757;77;21023;-45
2022/01/06 08:27:52;;;;;;;3.87;2.83;;;13.30;61.30;;;;;;1872635;75;21037;-45
2022/01/06 08:30:21;;;;;;;4.58;2.70;;;13.30;61.30;;;;;;1872739;75;21101;-45
2022/01/06 08:32:50;;;;;;;12.78;3.33;;;13.20;61.20;;;;;;1872781;77;21036;-44
2022/01/06 08:35:20;;;;;;;8.85;3.40;;;13.30;61.50;;;;;;1872825;76;21030;-44
2022/01/06 08:37:49;;;;;;;5.58;2.90;;;13.30;61.70;;;;;;1873006;76;21089;-45
2022/01/06 08:40:18;;;;;;;5.22;3.27;;;13.30;61.80;;;;;;1872937;76;21037;-45
2022/01/06 08:42:48;;;;;;;6.28;3.02;;;13.30;61.90;;;;;;1872882;75;21085;-45
2022/01/06 08:45:17;;;;;;;5.50;2.90;;;13.40;62.00;;;;;;1872875;77;21088;-45
2022/01/06 08:47:47;;;;;;;5.33;2.55;;;13.50;62.10;;;;;;1872925;76;21121;-45
2022/01/06 08:50:17;;;;;;;6.55;3.35;;;13.60;62.20;;;;;;1872948;75;21103;-45
2022/01/06 08:52:46;;;;;;;8.75;3.20;;;13.60;62.10;;;;;;1872810;75;21041;-46
2022/01/06 08:55:16;;;;;;;5.83;2.60;;;13.80;62.20;;;;;;1872854;76;21107;-46
2022/01/06 08:57:45;;;;;;;6.12;3.40;;;13.80;62.10;;;;;;1872934;77;21065;-47
2022/01/06 09:00:15;;;;;;;4.70;2.85;;;13.90;62.30;;;;;;1872842;75;21033;-46
2022/01/06 09:02:45;;;;;;;8.50;3.22;;;14.00;63.00;;;;;;1872800;75;21069;-47
2022/01/06 09:05:15;;;;;;;7.40;3.20;;;14.10;62.40;;;;;;1872780;75;21524;-45
2022/01/06 09:07:45;;;;;;;5.72;3.67;;;14.20;62.20;;;;;;1872928;77;21099;-45
2022/01/06 09:10:14;;;;;;;6.28;4.03;;;14.20;62.20;;;;;;1872934;76;21084;-46
2022/01/06 09:12:45;;;;;;;9.75;3.30;;;14.30;62.20;;;;;;1872840;75;21034;-46
2022/01/06 09:15:15;;;;;;;7.72;3.40;;;14.30;62.20;;;;;;1872949;77;21069;-45
2022/01/06 09:17:44;;;;;;;7.15;3.17;;;14.30;62.00;;;;;;1872912;75;21029;-45
2022/01/06 09:20:14;;;;;;;12.55;4.12;;;14.40;62.20;;;;;;1872808;76;21033;-47
2022/01/06 09:22:44;;;;;;;7.55;3.37;;;14.40;61.80;;;;;;1872766;75;21079;-45
2022/01/06 09:25:15;;;;;;;9.13;3.92;;;14.40;62.00;;;;;;1872928;75;21100;-44
2022/01/06 09:27:45;;;;;;;7.15;3.67;;;14.40;62.50;;;;;;1872850;75;21103;-45
2022/01/06 09:30:14;;;;;;;6.83;3.70;;;14.40;62.70;;;;;;1872863;75;21029;-49
2022/01/06 09:32:43;;;;;;;12.60;3.70;;;14.40;62.80;;;;;;1872814;77;21030;-44
2022/01/06 09:35:13;;;;;;;7.55;3.25;;;14.30;62.90;;;;;;1872859;75;21030;-46
2022/01/06 09:37:42;;;;;;;10.20;3.95;;;14.30;63.00;;;;;;1872916;75;21037;-45
2022/01/06 09:40:12;;;;;;;6.15;3.27;;;14.30;63.20;;;;;;1872806;75;21029;-46
2022/01/06 09:42:43;;;;;;;10.18;4.10;;;14.20;63.30;;;;;;1872806;75;21091;-46
2022/01/06 09:45:13;;;;;;;6.05;3.22;;;14.20;63.50;;;;;;1872868;77;21038;-44
2022/01/06 09:47:42;;;;;;;7.70;4.33;;;14.10;63.40;;;;;;1872754;76;21062;-44
2022/01/06 09:50:13;;;;;;;7.87;3.67;;;14.00;63.50;;;;;;1872804;75;21037;-45
2022/01/06 09:52:42;;;;;;;4.62;1.77;;;14.00;63.70;;;;;;1872830;77;21127;-45
2022/01/06 09:55:12;;;;;;;7.20;3.98;;;14.00;63.80;;;;;;1872825;75;21038;-44
2022/01/06 09:57:42;;;;;;;7.80;4.08;;;13.90;64.10;;;;;;1872884;76;21128;-45
2022/01/06 10:00:13;;;;;;;3.85;3.12;;;13.90;64.20;;;;;;1872899;75;21009;-45
2022/01/06 10:02:42;;;;;;;7.03;4.33;;;13.90;64.50;;;;;;1872898;75;21159;-45
2022/01/06 10:05:12;;;;;;;7.20;4.55;;;13.90;64.70;;;;;;1872955;75;21057;-46
2022/01/06 10:07:42;;;;;;;10.53;4.42;;;13.80;65.00;;;;;;1872858;75;21089;-46
2022/01/06 10:10:14;;;;;;;10.50;5.75;;;13.90;65.20;;;;;;1872909;76;21049;-46
2022/01/06 10:12:43;;;;;;;9.53;4.80;;;13.90;65.40;;;;;;1872752;75;21041;-45
2022/01/06 10:15:21;;;;;;;5.17;3.12;;;13.90;65.40;;;;;;1872752;75;21101;-45
2022/01/06 10:17:51;;;;;;;6.17;3.27;;;14.00;65.70;;;;;;1872905;75;21042;-45
2022/01/06 10:20:28;;;;;;;10.00;4.42;;;14.00;65.70;;;;;;1872780;76;21073;-47
2022/01/06 10:22:58;;;;;;;7.05;4.62;;;13.90;65.70;;;;;;1872751;76;21033;-46
2022/01/06 10:25:33;;;;;;;6.87;3.08;;;13.90;65.80;;;;;;1872760;77;21099;-44
2022/01/06 10:28:02;;;;;;;9.13;4.00;;;13.80;66.00;;;;;;1873084;77;21100;-46
2022/01/06 10:30:32;;;;;;;8.80;4.45;;;13.70;67.00;;;;;;1872874;77;21037;-46
2022/01/06 10:33:01;;;;;;;12.13;5.37;;;13.80;66.40;;;;;;1872895;77;21037;-45
2022/01/06 10:35:30;;;;;;;6.50;4.28;;;13.80;66.40;;;;;;1872863;77;21097;-45
2022/01/06 10:38:01;;;;;;;12.10;6.28;;;13.80;66.40;;;;;;1872857;75;21138;-45
2022/01/06 10:40:31;;;;;;;7.17;4.40;;;13.80;66.40;;;;;;1872888;77;21088;-45
2022/01/06 10:43:06;;;;;;;4.85;3.30;;;13.90;66.40;;;;;;1872787;75;21146;-45
2022/01/06 10:45:31;;;;;;;9.33;4.17;;;13.90;66.30;;;;;;1871947;77;21065;-46
2022/01/06 10:48:02;;;;;;;10.25;4.47;;;14.00;66.20;;;;;;1872790;76;21083;-44
2022/01/06 10:50:34;;;;;;;9.48;5.00;;;14.00;66.30;;;;;;1872768;75;21042;-45
2022/01/06 10:53:06;;;;;;;8.85;3.87;;;14.00;66.10;;;;;;1872896;76;21110;-44
2022/01/06 10:55:41;;;;;;;7.28;4.35;;;14.10;66.00;;;;;;1872766;76;21134;-45
2022/01/06 10:58:13;;;;;;;;;;;14.10;65.70;;;;;;1875067;76;21547;-44
2022/01/06 11:00:44;;;;;;;8.95;4.67;;;14.10;65.20;;;;;;1872783;76;20105;-48
2022/01/06 11:03:19;;;;;;;8.25;4.28;;;14.10;65.50;;;;;;1872711;76;21152;-44
2022/01/06 11:05:54;;;;;;;9.48;3.92;;;14.10;65.40;;;;;;1872792;75;21069;-45
2022/01/06 11:08:27;;;;;;;7.90;4.70;;;14.20;65.30;;;;;;1872997;76;21083;-45
2022/01/06 11:11:25;;;;;;;14.07;5.33;;;14.20;65.40;;;;;;1872780;75;21036;-44
2022/01/06 11:13:45;;;;;;;9.28;4.58;;;14.30;65.60;;;;;;1868952;77;21085;-44
2022/01/06 11:16:19;;;;;;;9.05;4.47;;;14.30;65.70;;;;;;1872729;77;21092;-48
2022/01/06 11:18:54;;;;;;;8.20;4.55;;;14.30;65.90;;;;;;1872674;75;21125;-49
2022/01/06 11:21:29;;;;;;;12.88;4.97;;;14.40;66.00;;;;;;1872829;75;21006;-47
2022/01/06 11:24:03;;;;;;;8.98;4.70;;;14.40;66.10;;;;;;1872316;75;21127;-47
2022/01/06 11:26:33;;;;;;;11.33;3.62;;;14.50;65.90;;;;;;1873011;75;21014;-46
2022/01/06 11:29:02;;;;;;;7.15;4.35;;;14.50;65.60;;;;;;1872689;75;21111;-44
2022/01/06 11:31:37;;;;;;;13.60;4.15;;;14.50;65.80;;;;;;1872777;75;21163;-45
2022/01/06 11:34:17;;;;;;;8.55;4.12;;;14.50;66.00;;;;;;1872485;76;21089;-43
2022/01/06 11:36:50;;;;;;;7.08;4.45;;;14.50;66.10;;;;;;1872929;76;21037;-44
2022/01/06 11:39:28;;;;;;;7.62;4.00;;;14.50;66.20;;;;;;1872911;77;21107;-43
2022/01/06 11:41:59;;;;;;;7.53;4.53;;;14.50;66.30;;;;;;1872780;77;21033;-44
2022/01/06 11:44:35;;;;;;;12.70;5.37;;;14.50;66.50;;;;;;1872731;76;21050;-44
2022/01/06 11:47:05;;;;;;;8.25;4.78;;;14.40;66.70;;;;;;1872735;75;21103;-44
2022/01/06 11:49:39;;;;;;;9.88;4.90;;;14.40;66.80;;;;;;1872850;77;21041;-45
2022/01/06 11:52:10;;;;;;;6.08;3.98;;;14.40;66.90;;;;;;1872852;76;21522;-44
2022/01/06 11:54:56;;;;;;;8.35;4.83;;;14.30;67.00;;;;;;1872846;75;21097;-43
2022/01/06 11:57:37;;;;;;;14.87;5.30;;;14.30;67.00;;;;;;1872796;77;21034;-44
2022/01/06 12:00:15;;;;;;;6.70;3.95;;;14.30;67.00;;;;;;1872877;75;21077;-43
2022/01/06 12:02:46;;;;;;;7.58;4.67;;;14.30;67.00;;;;;;1870952;77;21038;-47
2022/01/06 12:05:16;;;;;;;10.88;5.33;;;14.30;67.00;;;;;;1877966;76;21071;-45
2022/01/06 12:07:52;;;;;;;8.65;4.17;;;14.30;67.10;;;;;;1891455;76;21044;-45
2022/01/06 12:10:22;;;;;;;12.23;4.22;;;14.30;67.00;;;;;;1891541;76;21087;-46
2022/01/06 12:12:53;;;;;;;7.58;4.12;;;14.20;67.00;;;;;;1891540;76;21004;-47
2022/01/06 12:15:22;;;;;;;6.78;4.60;;;14.20;67.10;;;;;;1891000;75;21483;-44
2022/01/06 12:17:52;;;;;;;4.87;4.05;;;14.20;67.10;;;;;;1891563;76;21082;-44
2022/01/06 12:20:30;;;;;;;13.85;5.10;;;14.10;67.00;;;;;;1891627;76;21099;-44
2022/01/06 12:22:59;;;;;;;16.07;6.87;;;14.10;67.00;;;;;;1891490;76;20996;-44
2022/01/06 12:25:29;;;;;;;7.55;4.08;;;14.10;67.00;;;;;;1891625;76;21112;-46
2022/01/06 12:27:58;;;;;;;7.45;4.10;;;14.10;67.50;;;;;;1891653;76;21086;-44
2022/01/06 12:30:29;;;;;;;9.10;4.10;;;14.00;66.80;;;;;;1891651;76;21106;-44
2022/01/06 12:33:06;;;;;;;8.58;4.78;;;14.10;66.90;;;;;;1891697;76;21212;-45
2022/01/06 12:35:43;;;;;;;4.45;3.22;;;14.00;66.90;;;;;;1891557;76;21032;-45
2022/01/06 12:38:13;;;;;;;7.37;3.77;;;14.00;67.10;;;;;;1891438;75;21115;-44
2022/01/06 12:40:46;;;;;;;8.65;4.53;;;14.00;67.40;;;;;;1891756;76;21110;-44
2022/01/06 12:43:18;;;;;;;7.12;3.87;;;13.90;67.60;;;;;;1891540;76;21105;-49
2022/01/06 12:45:48;;;;;;;11.30;4.78;;;13.90;67.70;;;;;;1891631;76;21036;-46
2022/01/06 12:48:20;;;;;;;14.00;4.15;;;13.90;67.90;;;;;;1890238;75;21544;-45
2022/01/06 12:50:50;;;;;;;9.98;4.72;;;13.90;68.40;;;;;;1889585;75;21055;-45
2022/01/06 12:53:34;;;;;;;21.52;6.08;;;13.80;68.40;;;;;;1891496;75;21031;-43
2022/01/06 12:56:04;;;;;;;7.17;4.33;;;13.80;68.60;;;;;;1891549;76;21494;-44
2022/01/06 12:58:39;;;;;;;8.68;5.28;;;13.80;69.20;;;;;;1891555;76;21091;-45
2022/01/06 13:01:10;;;;;;;11.80;5.75;;;13.80;69.20;;;;;;1891680;76;21024;-45
2022/01/06 13:03:42;;;;;;;9.60;6.03;;;13.70;69.20;;;;;;1891520;76;21114;-44
2022/01/06 13:06:13;;;;;;;13.38;5.22;;;13.70;69.20;;;;;;1891544;76;21123;-45